Time;durP1;ratioP1;P1;durP2;ratioP2;P2;SDS_P1;SDS_P2;PMS_P1;PMS_P2;Temp;Humidity;BMP_temperature;BMP_pressure;BME280_temperature;BME280_humidity;BME280_pressure;Samples;Min_cycle;Max_cycle;Signal;HPM_P1;HPM_P2
2024/02/25 00:00:38;;;;;;;4.45;2.60;;;;;;;-1.25;81.71;99388.53;2504098;28;20392;-82
2024/02/25 00:01:52;;;;;;;7.93;2.70;;;;;;;-1.28;81.38;99386.78;2504987;28;20325;-83
2024/02/25 00:03:06;;;;;;;6.30;4.03;;;;;;;-1.27;81.20;99382.50;2504699;28;20289;-82
2024/02/25 00:04:20;;;;;;;3.08;2.78;;;;;;;-1.27;81.24;99377.41;2504931;28;20054;-82
2024/02/25 00:05:34;;;;;;;4.97;3.33;;;;;;;-1.28;81.68;99376.53;2504002;28;20313;-82
2024/02/25 00:06:47;;;;;;;3.58;2.75;;;;;;;-1.28;81.43;99373.13;2501420;28;20051;-83
2024/02/25 00:08:02;;;;;;;6.47;2.85;;;;;;;-1.28;81.78;99368.00;2503546;28;20333;-82
2024/02/25 00:09:16;;;;;;;6.32;2.85;;;;;;;-1.28;81.29;99370.56;2501249;28;20543;-83
2024/02/25 00:10:30;;;;;;;4.78;3.75;;;;;;;-1.28;81.58;99375.69;2503500;28;20310;-82
2024/02/25 00:11:44;;;;;;;4.70;2.97;;;;;;;-1.29;81.67;99368.81;2500318;28;20043;-82
2024/02/25 00:12:58;;;;;;;3.58;2.50;;;;;;;-1.32;81.38;99364.50;2505956;28;20316;-83
2024/02/25 00:14:12;;;;;;;6.13;3.28;;;;;;;-1.33;81.43;99363.66;2505671;28;20116;-82
2024/02/25 00:15:27;;;;;;;3.55;2.75;;;;;;;-1.33;81.65;99370.47;2504538;28;20290;-81
2024/02/25 00:16:41;;;;;;;3.85;2.10;;;;;;;-1.33;81.60;99371.34;2505042;28;20065;-83
2024/02/25 00:17:56;;;;;;;5.53;2.92;;;;;;;-1.33;81.80;99363.66;2505720;28;20306;-82
2024/02/25 00:19:09;;;;;;;6.43;3.15;;;;;;;-1.32;81.77;99364.50;2504258;28;20039;-83
2024/02/25 00:20:24;;;;;;;4.95;3.55;;;;;;;-1.33;81.66;99362.78;2505383;28;20385;-82
2024/02/25 00:21:37;;;;;;;7.85;3.30;;;;;;;-1.34;81.46;99361.94;2505278;28;20049;-81
2024/02/25 00:22:52;;;;;;;4.03;3.40;;;;;;;-1.33;81.51;99358.53;2512238;28;20286;-82
2024/02/25 00:24:05;;;;;;;6.25;3.05;;;;;;;-1.34;81.54;99367.06;2515197;28;20054;-81
2024/02/25 00:25:20;;;;;;;3.08;2.35;;;;;;;-1.34;81.63;99364.50;2515002;28;20412;-82
2024/02/25 00:26:33;;;;;;;6.65;3.35;;;;;;;-1.34;81.43;99356.81;2509163;28;20062;-84
2024/02/25 00:27:48;;;;;;;5.80;3.20;;;;;;;-1.35;81.63;99355.06;2505039;28;20306;-81
2024/02/25 00:29:01;;;;;;;4.25;2.83;;;;;;;-1.35;81.39;99361.91;2505866;28;20043;-82
2024/02/25 00:30:16;;;;;;;3.58;2.47;;;;;;;-1.36;81.71;99361.03;2505085;28;20317;-83
2024/02/25 00:31:31;;;;;;;9.15;3.65;;;;;;;-1.35;81.97;99360.19;2505462;28;20523;-82
2024/02/25 00:32:45;;;;;;;2.65;2.30;;;;;;;-1.37;81.89;99361.88;2505343;28;20743;-83
2024/02/25 00:33:58;;;;;;;5.50;2.85;;;;;;;-1.38;81.63;99354.16;2505862;28;20321;-83
2024/02/25 00:35:13;;;;;;;7.07;3.75;;;;;;;-1.39;81.78;99352.47;2504929;28;20296;-82
2024/02/25 00:36:26;;;;;;;4.97;3.22;;;;;;;-1.40;81.65;99350.72;2505414;28;20050;-83
2024/02/25 00:37:41;;;;;;;4.90;3.50;;;;;;;-1.39;81.99;99355.88;2505178;28;20389;-84
2024/02/25 00:38:55;;;;;;;8.20;2.92;;;;;;;-1.37;81.85;99355.88;2505182;28;20047;-84
2024/02/25 00:40:10;;;;;;;4.18;2.90;;;;;;;-1.36;81.97;99344.84;2505180;28;20306;-84
2024/02/25 00:41:24;;;;;;;5.22;3.53;;;;;;;-1.37;81.60;99346.53;2505719;28;20424;-84
2024/02/25 00:42:38;;;;;;;7.10;3.50;;;;;;;-1.36;81.77;99353.38;2504898;28;20389;-83
2024/02/25 00:43:52;;;;;;;4.18;2.58;;;;;;;-1.37;81.65;99348.22;2504181;28;20109;-83
2024/02/25 00:45:07;;;;;;;3.85;3.30;;;;;;;-1.37;82.00;99354.22;2503992;28;20372;-83
2024/02/25 00:46:20;;;;;;;3.95;3.05;;;;;;;-1.36;81.97;99350.81;2500464;28;20055;-80
2024/02/25 00:47:36;;;;;;;6.57;3.60;;;;;;;-1.35;82.12;99355.06;2493689;28;20291;-80
2024/02/25 00:48:49;;;;;;;5.32;4.07;;;;;;;-1.33;82.13;99353.41;2504292;28;20047;-81
2024/02/25 00:50:06;;;;;;;5.82;2.90;;;;;;;-1.29;82.28;99358.59;2506005;28;20678;-82
2024/02/25 00:51:19;;;;;;;5.47;3.92;;;;;;;-1.27;81.86;99356.91;2500983;28;20043;-81
2024/02/25 00:52:34;;;;;;;3.22;2.33;;;;;;;-1.27;81.86;99360.34;2502191;28;20403;-82
2024/02/25 00:53:47;;;;;;;4.32;3.50;;;;;;;-1.23;82.05;99366.41;2504326;28;20424;-82
2024/02/25 00:55:02;;;;;;;5.07;3.28;;;;;;;-1.22;82.17;99363.00;2501408;28;20279;-79
2024/02/25 00:56:16;;;;;;;3.75;3.30;;;;;;;-1.22;82.25;99371.53;2510208;28;20043;-83
2024/02/25 00:57:30;;;;;;;3.85;2.60;;;;;;;-1.21;81.82;99357.06;2499679;28;20312;-82
2024/02/25 00:58:43;;;;;;;5.43;3.53;;;;;;;-1.23;82.28;99359.56;2501374;28;20065;-81
2024/02/25 00:59:58;;;;;;;4.70;3.15;;;;;;;-1.23;81.90;99358.72;2497637;28;20321;-81
2024/02/25 01:01:14;;;;;;;6.25;3.00;;;;;;;-1.24;81.83;99352.75;2513185;28;20066;-80
2024/02/25 01:02:29;;;;;;;6.05;3.30;;;;;;;-1.24;81.68;99357.84;2506860;28;20314;-79
2024/02/25 01:03:44;;;;;;;4.43;3.65;;;;;;;-1.24;82.29;99352.75;2505982;28;20814;-80
2024/02/25 01:04:58;;;;;;;4.10;2.75;;;;;;;-1.24;81.96;99362.09;2498461;28;20838;-80
2024/02/25 01:06:12;;;;;;;5.03;2.72;;;;;;;-1.24;81.91;99356.97;2500014;28;20306;-81
2024/02/25 01:07:26;;;;;;;5.05;3.35;;;;;;;-1.25;82.04;99353.56;2509729;28;20286;-80
2024/02/25 01:08:41;;;;;;;5.40;3.13;;;;;;;-1.24;81.98;99357.84;2497768;28;20054;-81
2024/02/25 01:09:55;;;;;;;3.13;2.60;;;;;;;-1.23;81.81;99354.44;2502913;28;20365;-81
2024/02/25 01:11:09;;;;;;;2.92;2.53;;;;;;;-1.24;82.34;99352.75;2501258;28;20291;-81
2024/02/25 01:12:23;;;;;;;6.55;3.17;;;;;;;-1.24;82.07;99351.84;2494362;28;20346;-79
2024/02/25 01:13:36;;;;;;;10.65;4.10;;;;;;;-1.22;82.42;99338.25;2499855;28;20443;-81
2024/02/25 01:14:51;;;;;;;6.20;2.85;;;;;;;-1.18;82.02;99344.31;2495888;28;20314;-81
2024/02/25 01:16:05;;;;;;;4.07;2.70;;;;;;;-1.18;82.06;99341.75;2502187;28;20062;-81
2024/02/25 01:17:19;;;;;;;5.38;2.88;;;;;;;-1.18;82.34;99342.59;2497680;28;20330;-82
2024/02/25 01:18:33;;;;;;;3.65;2.30;;;;;;;-1.16;82.42;99345.16;2509178;28;20042;-82
2024/02/25 01:19:49;;;;;;;4.40;2.90;;;;;;;-1.16;82.39;99340.03;2506629;28;20309;-81
2024/02/25 01:21:03;;;;;;;6.03;2.65;;;;;;;-1.16;82.36;99340.03;2496552;28;20051;-82
2024/02/25 01:22:17;;;;;;;7.43;2.95;;;;;;;-1.17;81.91;99335.78;2500978;28;20311;-82
2024/02/25 01:23:31;;;;;;;2.88;2.45;;;;;;;-1.17;82.04;99333.22;2498649;28;20110;-82
2024/02/25 01:24:45;;;;;;;4.30;2.78;;;;;;;-1.18;82.15;99334.91;2497030;28;20342;-81
2024/02/25 01:25:58;;;;;;;4.82;2.80;;;;;;;-1.11;82.60;99338.44;2502510;28;20511;-81
2024/02/25 01:27:14;;;;;;;4.45;3.17;;;;;;;-1.06;82.54;99325.72;2496397;28;20279;-82
2024/02/25 01:28:27;;;;;;;4.88;3.30;;;;;;;-1.05;82.31;99333.44;2499195;28;20501;-82
2024/02/25 01:29:42;;;;;;;6.18;4.07;;;;;;;-1.06;81.98;99331.69;2499935;28;20318;-82
2024/02/25 01:30:55;;;;;;;3.60;2.83;;;;;;;-1.07;82.27;99335.09;2495797;28;20074;-81
2024/02/25 01:32:10;;;;;;;5.05;2.50;;;;;;;-1.07;82.52;99335.09;2511062;28;20430;-82
2024/02/25 01:33:23;;;;;;;3.63;3.10;;;;;;;-1.07;82.23;99326.56;2499521;28;20047;-82
2024/02/25 01:34:37;;;;;;;3.08;2.78;;;;;;;-1.09;81.93;99334.19;2499571;28;20670;-82
2024/02/25 01:35:52;;;;;;;4.50;3.22;;;;;;;-1.09;82.31;99331.63;2504185;28;20483;-79
2024/02/25 01:37:07;;;;;;;7.13;2.72;;;;;;;-1.12;82.26;99322.22;2495896;28;20366;-81
2024/02/25 01:38:21;;;;;;;3.38;2.72;;;;;;;-1.12;82.10;99329.03;2503516;28;20317;-82
2024/02/25 01:39:35;;;;;;;3.88;2.72;;;;;;;-1.14;81.95;99317.91;2503406;28;20891;-82
2024/02/25 01:40:48;;;;;;;4.35;3.17;;;;;;;-1.15;81.93;99319.59;2503878;28;20418;-83
2024/02/25 01:42:03;;;;;;;7.53;3.63;;;;;;;-1.16;82.26;99320.44;2494763;28;20393;-81
2024/02/25 01:43:17;;;;;;;4.55;2.72;;;;;;;-1.18;82.14;99326.38;2496669;28;20721;-82
2024/02/25 01:44:31;;;;;;;5.78;2.95;;;;;;;-1.18;82.22;99319.56;2508676;28;20303;-82
2024/02/25 01:45:45;;;;;;;6.90;3.20;;;;;;;-1.17;82.53;99320.41;2507082;28;20086;-81
2024/02/25 01:47:01;;;;;;;7.30;3.65;;;;;;;-1.17;82.49;99323.81;2502919;28;20282;-82
2024/02/25 01:48:19;;;;;;;5.07;2.55;;;;;;;-1.17;82.41;99318.72;2497110;28;20115;-82
2024/02/25 01:49:33;;;;;;;4.05;2.33;;;;;;;-1.15;82.53;99322.16;2498586;28;20354;-82
2024/02/25 01:50:47;;;;;;;3.58;2.58;;;;;;;-1.15;82.00;99322.16;2500818;28;20309;-82
2024/02/25 01:52:04;;;;;;;2.88;2.03;;;;;;;-1.14;82.40;99320.47;2495786;28;20465;-82
2024/02/25 01:53:18;;;;;;;3.75;2.72;;;;;;;-1.14;82.24;99323.03;2503840;28;20313;-80
2024/02/25 01:54:31;;;;;;;3.83;2.78;;;;;;;-1.14;82.22;99318.75;2499061;28;20314;-80
2024/02/25 01:55:50;;;;;;;2.67;2.25;;;;;;;-1.12;82.06;99321.34;2501234;28;20870;-82
2024/02/25 01:57:03;;;;;;;4.35;2.25;;;;;;;-1.14;82.21;99315.34;2495902;28;20078;-81
2024/02/25 01:58:18;;;;;;;5.43;2.65;;;;;;;-1.14;82.34;99323.88;2500726;28;20349;-82
2024/02/25 01:59:32;;;;;;;2.53;2.22;;;;;;;-1.13;82.35;99317.09;2503657;28;20072;-81
2024/02/25 02:00:47;;;;;;;2.47;2.03;;;;;;;-1.11;82.43;99317.94;2506875;28;20314;-80
2024/02/25 02:02:01;;;;;;;2.95;1.80;;;;;;;-1.11;81.95;99317.94;2496136;28;20105;-81
2024/02/25 02:03:16;;;;;;;6.47;2.47;;;;;;;-1.09;82.16;99316.28;2500691;28;20710;-81
2024/02/25 02:04:32;;;;;;;3.90;2.90;;;;;;;-1.08;82.17;99317.13;2500393;28;20047;-79
2024/02/25 02:05:46;;;;;;;5.95;3.42;;;;;;;-1.08;82.37;99323.16;2498872;28;20788;-82
2024/02/25 02:07:02;;;;;;;6.95;2.58;;;;;;;-1.08;82.35;99320.59;2503130;28;20286;-81
2024/02/25 02:08:17;;;;;;;7.97;2.90;;;;;;;-1.06;81.92;99323.16;2498701;28;20310;-81
2024/02/25 02:09:32;;;;;;;4.43;2.45;;;;;;;-1.05;82.19;99317.22;2500347;28;20303;-81
2024/02/25 02:10:46;;;;;;;6.78;2.78;;;;;;;-1.04;81.93;99314.66;2508769;28;20358;-82
2024/02/25 02:12:00;;;;;;;3.60;2.25;;;;;;;-1.01;81.94;99314.69;2505956;28;20302;-81
2024/02/25 02:13:17;;;;;;;3.90;1.90;;;;;;;-1.00;81.84;99313.88;2498451;28;20310;-81
2024/02/25 02:14:32;;;;;;;4.93;2.65;;;;;;;-0.98;82.36;99308.78;2500543;28;20047;-79
2024/02/25 02:15:46;;;;;;;3.25;2.72;;;;;;;-0.97;82.10;99311.38;2502237;28;20302;-80
2024/02/25 02:17:03;;;;;;;5.18;3.65;;;;;;;-0.94;81.83;99311.41;2497577;28;20303;-80
2024/02/25 02:18:17;;;;;;;2.97;2.67;;;;;;;-0.93;82.00;99302.91;2503732;28;20393;-79
2024/02/25 02:19:32;;;;;;;4.70;2.65;;;;;;;-0.91;81.72;99300.34;2500482;28;20297;-81
2024/02/25 02:20:47;;;;;;;3.20;2.47;;;;;;;-0.91;81.86;99306.31;2499355;28;20303;-79
2024/02/25 02:22:01;;;;;;;3.33;2.60;;;;;;;-0.90;81.67;99308.06;2504143;28;20394;-81
2024/02/25 02:23:15;;;;;;;3.78;2.55;;;;;;;-0.90;82.17;99309.78;2498161;28;20283;-81
2024/02/25 02:24:29;;;;;;;3.47;2.88;;;;;;;-0.90;81.83;99309.78;2501044;28;20389;-80
2024/02/25 02:25:43;;;;;;;4.35;2.35;;;;;;;-0.90;81.85;99315.75;2502663;28;20051;-80
2024/02/25 02:26:58;;;;;;;2.60;2.40;;;;;;;-0.91;81.98;99306.31;2499765;28;20286;-80
2024/02/25 02:28:12;;;;;;;4.38;2.50;;;;;;;-0.92;81.87;99314.00;2505664;28;20101;-81
2024/02/25 02:29:26;;;;;;;2.67;2.47;;;;;;;-0.93;82.07;99308.03;2502177;28;20381;-80
2024/02/25 02:30:39;;;;;;;8.85;2.95;;;;;;;-0.93;82.09;99296.91;2501901;28;20046;-81
2024/02/25 02:31:56;;;;;;;2.47;2.22;;;;;;;-0.95;81.91;99299.44;2506071;28;20306;-81
2024/02/25 02:33:10;;;;;;;3.53;2.15;;;;;;;-0.92;82.24;99311.44;2507794;28;20055;-80
2024/02/25 02:34:24;;;;;;;5.13;3.10;;;;;;;-0.94;82.08;99306.28;2512200;28;20312;-80
2024/02/25 02:35:38;;;;;;;3.15;2.70;;;;;;;-0.92;81.71;99303.75;2499691;28;20649;-81
2024/02/25 02:36:54;;;;;;;4.63;2.95;;;;;;;-0.90;81.92;99307.22;2503527;28;20389;-80
2024/02/25 02:38:09;;;;;;;4.82;2.33;;;;;;;-0.90;81.82;99307.22;2504080;28;20051;-81
2024/02/25 02:39:23;;;;;;;3.35;2.65;;;;;;;-0.88;81.72;99302.94;2499090;28;20316;-80
2024/02/25 02:40:36;;;;;;;2.58;2.33;;;;;;;-0.85;82.09;99300.47;2511132;28;20727;-80
2024/02/25 02:41:51;;;;;;;3.80;2.67;;;;;;;-0.83;81.94;99300.47;2508360;28;20314;-81
2024/02/25 02:43:04;;;;;;;5.90;2.83;;;;;;;-0.84;82.02;99298.75;2496888;28;20465;-79
2024/02/25 02:44:19;;;;;;;3.30;2.53;;;;;;;-0.84;81.96;99298.75;2505575;28;20396;-79
2024/02/25 02:45:32;;;;;;;3.47;2.50;;;;;;;-0.83;81.62;99292.78;2500436;28;20047;-80
2024/02/25 02:46:47;;;;;;;6.18;2.97;;;;;;;-0.83;81.99;99306.44;2506258;28;20312;-80
2024/02/25 02:48:00;;;;;;;3.08;2.33;;;;;;;-0.83;81.66;99293.66;2505916;28;20047;-79
2024/02/25 02:49:15;;;;;;;3.10;2.40;;;;;;;-0.83;81.63;99300.47;2511422;28;20311;-80
2024/02/25 02:50:28;;;;;;;4.25;2.42;;;;;;;-0.85;81.72;99304.69;2500217;28;20699;-81
2024/02/25 02:51:43;;;;;;;3.80;3.03;;;;;;;-0.86;81.71;99287.63;2499659;28;20309;-80
2024/02/25 02:52:57;;;;;;;2.70;2.13;;;;;;;-0.86;81.84;99303.84;2496002;28;20051;-80
2024/02/25 02:54:12;;;;;;;5.10;3.40;;;;;;;-0.84;81.72;99304.75;2506148;28;20346;-81
2024/02/25 02:55:25;;;;;;;3.45;2.88;;;;;;;-0.83;81.95;99301.31;2508698;28;20369;-80
2024/02/25 02:56:40;;;;;;;3.85;3.00;;;;;;;-0.79;81.86;99297.13;2505004;28;20774;-80
2024/02/25 02:57:53;;;;;;;2.35;2.15;;;;;;;-0.77;81.58;99292.91;2503322;28;20477;-80
2024/02/25 02:59:07;;;;;;;2.35;2.10;;;;;;;-0.76;81.96;99294.63;2496944;28;20286;-82
2024/02/25 03:00:21;;;;;;;4.00;3.05;;;;;;;-0.76;81.41;99300.59;2508785;28;20045;-82
2024/02/25 03:01:35;;;;;;;2.65;2.42;;;;;;;-0.77;81.74;99296.31;2510677;28;20392;-81
2024/02/25 03:02:49;;;;;;;7.57;2.17;;;;;;;-0.77;81.57;99296.31;2512376;28;20046;-82
2024/02/25 03:04:04;;;;;;;4.53;3.22;;;;;;;-0.78;81.50;99301.41;2506761;28;20310;-81
2024/02/25 03:05:18;;;;;;;5.72;3.13;;;;;;;-0.77;81.45;99293.75;2513260;28;20051;-81
2024/02/25 03:06:32;;;;;;;11.57;5.40;;;;;;;-0.74;81.78;99292.94;2505631;28;20381;-81
2024/02/25 03:07:49;;;;;;;7.70;4.35;;;;;;;-0.71;81.80;99292.97;2512510;28;20054;-81
2024/02/25 03:09:04;;;;;;;6.57;5.95;;;;;;;-0.70;81.41;99299.81;2507545;28;20306;-82
2024/02/25 03:10:18;;;;;;;8.68;4.43;;;;;;;-0.68;81.81;99293.03;2515731;28;20306;-81
2024/02/25 03:11:32;;;;;;;3.58;2.75;;;;;;;-0.67;81.81;99295.63;2514444;28;20289;-83
2024/02/25 03:12:46;;;;;;;6.13;3.38;;;;;;;-0.66;81.74;99288.78;2509084;28;20074;-82
2024/02/25 03:14:01;;;;;;;6.28;3.30;;;;;;;-0.64;81.81;99291.38;2497400;28;20307;-82
2024/02/25 03:15:14;;;;;;;5.85;2.78;;;;;;;-0.64;81.94;99294.81;2503181;28;20416;-82
2024/02/25 03:16:29;;;;;;;3.55;2.72;;;;;;;-0.65;81.79;99293.06;2496879;28;20314;-83
2024/02/25 03:17:43;;;;;;;5.35;3.67;;;;;;;-0.66;81.46;99296.47;2511671;28;20050;-82
2024/02/25 03:18:57;;;;;;;5.10;3.05;;;;;;;-0.69;81.56;99292.16;2507139;28;20297;-83
2024/02/25 03:20:11;;;;;;;7.93;3.40;;;;;;;-0.70;81.53;99292.13;2497175;28;20051;-82
2024/02/25 03:21:26;;;;;;;4.22;3.67;;;;;;;-0.72;81.57;99283.59;2507691;28;21057;-81
2024/02/25 03:22:40;;;;;;;5.57;3.85;;;;;;;-0.73;81.69;99292.94;2509071;28;20305;-80
2024/02/25 03:23:55;;;;;;;4.78;3.38;;;;;;;-0.70;81.33;99294.69;2504597;28;20309;-82
2024/02/25 03:25:10;;;;;;;5.45;3.03;;;;;;;-0.67;81.46;99292.19;2511596;28;20316;-82
2024/02/25 03:26:25;;;;;;;7.13;4.65;;;;;;;-0.66;81.47;99292.19;2498568;28;20306;-82
2024/02/25 03:27:38;;;;;;;8.82;3.92;;;;;;;-0.63;81.87;99293.94;2509445;28;20639;-82
2024/02/25 03:28:52;;;;;;;6.82;4.43;;;;;;;-0.58;81.93;99297.44;2514729;28;20312;-80
2024/02/25 03:30:07;;;;;;;4.70;3.70;;;;;;;-0.54;81.52;99294.09;2512967;28;20187;-81
2024/02/25 03:31:22;;;;;;;3.67;3.33;;;;;;;-0.50;82.04;99295.00;2500584;28;20293;-80
2024/02/25 03:32:35;;;;;;;7.55;3.20;;;;;;;-0.46;81.79;99295.06;2503689;28;20313;-82
2024/02/25 03:33:49;;;;;;;4.97;3.45;;;;;;;-0.41;81.90;99291.69;2504606;28;20316;-80
2024/02/25 03:35:04;;;;;;;6.45;3.70;;;;;;;-0.40;81.99;99290.84;2512266;28;20463;-82
2024/02/25 03:36:18;;;;;;;6.43;3.70;;;;;;;-0.36;81.74;99290.94;2512349;28;20306;-82
2024/02/25 03:37:31;;;;;;;4.35;3.97;;;;;;;-0.30;81.81;99291.00;2500498;28;20310;-80
2024/02/25 03:38:46;;;;;;;4.93;3.92;;;;;;;-0.25;82.07;99288.50;2506728;28;20305;-82
2024/02/25 03:39:59;;;;;;;4.10;3.67;;;;;;;-0.21;82.04;99290.25;2506101;28;20046;-82
2024/02/25 03:41:17;;;;;;;5.68;2.78;;;;;;;-0.18;82.02;99290.31;2512581;28;20305;-82
2024/02/25 03:42:31;;;;;;;4.20;3.10;;;;;;;-0.16;81.96;99291.16;2504584;28;20472;-82
2024/02/25 03:43:45;;;;;;;3.47;3.13;;;;;;;-0.13;81.95;99291.22;2498643;28;20279;-82
2024/02/25 03:44:59;;;;;;;3.75;3.13;;;;;;;-0.11;81.70;99288.66;2502403;28;20054;-82
2024/02/25 03:46:13;;;;;;;3.10;2.80;;;;;;;-0.11;81.65;99286.94;2495648;28;20312;-82
2024/02/25 03:47:27;;;;;;;4.18;3.05;;;;;;;-0.13;81.78;99285.22;2498001;28;20047;-81
2024/02/25 03:48:41;;;;;;;5.07;3.40;;;;;;;-0.15;81.73;99282.66;2499563;28;20321;-80
2024/02/25 03:49:54;;;;;;;3.00;2.78;;;;;;;-0.17;81.66;99275.78;2502136;28;20050;-80
2024/02/25 03:51:09;;;;;;;4.60;3.40;;;;;;;-0.22;81.17;99283.41;2511773;28;20289;-82
2024/02/25 03:52:22;;;;;;;2.95;2.08;;;;;;;-0.25;81.47;99280.81;2507677;28;20046;-80
2024/02/25 03:53:37;;;;;;;3.20;2.80;;;;;;;-0.29;81.52;99276.47;2513945;28;20320;-81
2024/02/25 03:54:50;;;;;;;2.75;2.35;;;;;;;-0.32;81.08;99279.84;2507866;28;20086;-82
2024/02/25 03:56:05;;;;;;;3.30;3.00;;;;;;;-0.35;81.39;99281.53;2512814;28;20061;-81
2024/02/25 03:57:20;;;;;;;2.88;2.50;;;;;;;-0.39;80.90;99275.47;2511966;28;20431;-81
2024/02/25 03:58:34;;;;;;;4.82;3.05;;;;;;;-0.41;80.69;99276.28;2499531;28;20398;-82
2024/02/25 03:59:48;;;;;;;3.15;2.85;;;;;;;-0.46;80.74;99279.69;2501317;28;20053;-82
2024/02/25 04:01:02;;;;;;;2.55;2.35;;;;;;;-0.50;80.94;99277.91;2512568;28;20050;-82
2024/02/25 04:02:16;;;;;;;2.80;2.17;;;;;;;-0.55;81.23;99284.66;2498273;28;20051;-79
2024/02/25 04:03:30;;;;;;;5.13;3.17;;;;;;;-0.56;81.42;99276.97;2509700;28;20809;-81
2024/02/25 04:04:46;;;;;;;4.47;2.80;;;;;;;-0.58;80.97;99286.34;2510679;28;20050;-81
2024/02/25 04:06:00;;;;;;;4.03;3.00;;;;;;;-0.62;81.00;99284.56;2506692;28;20393;-82
2024/02/25 04:07:14;;;;;;;5.68;2.50;;;;;;;-0.64;81.22;99286.25;2512324;28;20293;-82
2024/02/25 04:08:28;;;;;;;5.00;2.58;;;;;;;-0.69;81.32;99281.91;2507833;28;20343;-79
2024/02/25 04:09:42;;;;;;;4.05;2.83;;;;;;;-0.73;80.97;99282.69;2509227;28;20058;-80
2024/02/25 04:10:56;;;;;;;4.63;2.85;;;;;;;-0.76;80.89;99279.25;2511098;28;20650;-83
2024/02/25 04:12:10;;;;;;;5.43;2.70;;;;;;;-0.79;81.49;99285.19;2497417;28;20054;-80
2024/02/25 04:13:26;;;;;;;4.60;4.13;;;;;;;-0.80;81.09;99283.47;2507080;28;20671;-81
2024/02/25 04:14:39;;;;;;;4.07;2.95;;;;;;;-0.83;81.44;99279.97;2508263;28;20412;-83
2024/02/25 04:15:53;;;;;;;4.38;3.45;;;;;;;-0.83;81.34;99275.72;2511360;28;20309;-81
2024/02/25 04:17:07;;;;;;;4.68;2.95;;;;;;;-0.85;81.06;99284.22;2508383;28;20051;-81
2024/02/25 04:18:21;;;;;;;4.18;2.55;;;;;;;-0.89;81.37;99285.88;2507619;28;21019;-78
2024/02/25 04:19:35;;;;;;;3.92;3.28;;;;;;;-0.92;81.33;99281.56;2508580;28;20415;-79
2024/02/25 04:20:49;;;;;;;5.28;3.67;;;;;;;-0.95;81.58;99281.53;2509970;28;20298;-81
2024/02/25 04:22:03;;;;;;;3.58;3.20;;;;;;;-0.96;81.28;99287.47;2497182;28;20421;-82
2024/02/25 04:23:17;;;;;;;9.10;3.15;;;;;;;-0.97;81.48;99295.16;2514887;28;20289;-82
2024/02/25 04:24:30;;;;;;;4.28;3.88;;;;;;;-1.00;81.46;99290.84;2510497;28;20047;-81
2024/02/25 04:25:45;;;;;;;3.65;2.92;;;;;;;-1.01;81.68;99291.66;2510601;28;20313;-82
2024/02/25 04:26:58;;;;;;;4.53;2.78;;;;;;;-1.03;81.40;99285.69;2505623;28;20074;-83
2024/02/25 04:28:13;;;;;;;6.22;3.25;;;;;;;-1.06;81.63;99288.16;2512783;28;20309;-83
2024/02/25 04:29:28;;;;;;;4.10;3.10;;;;;;;-1.07;81.62;99283.88;2504323;28;20678;-79
2024/02/25 04:30:42;;;;;;;3.60;3.17;;;;;;;-1.07;81.13;99280.47;2499194;28;20327;-83
2024/02/25 04:31:56;;;;;;;4.50;3.13;;;;;;;-1.12;81.39;99276.13;2501523;28;20312;-84
2024/02/25 04:33:10;;;;;;;8.30;3.03;;;;;;;-1.13;81.30;99279.53;2510829;28;20313;-83
2024/02/25 04:34:23;;;;;;;5.18;3.65;;;;;;;-1.14;81.29;99282.91;2497239;28;20059;-82
2024/02/25 04:35:38;;;;;;;4.57;3.92;;;;;;;-1.14;81.27;99279.50;2499411;28;20377;-81
2024/02/25 04:36:52;;;;;;;10.18;3.33;;;;;;;-1.14;81.46;99275.22;2501085;28;20051;-83
2024/02/25 04:38:07;;;;;;;4.63;3.03;;;;;;;-1.15;81.52;99280.34;2512176;28;20304;-81
2024/02/25 04:39:22;;;;;;;4.53;3.17;;;;;;;-1.17;81.44;99271.78;2507092;28;20285;-83
2024/02/25 04:40:35;;;;;;;3.40;3.10;;;;;;;-1.19;81.78;99279.44;2514251;28;20320;-83
2024/02/25 04:41:50;;;;;;;5.78;2.75;;;;;;;-1.19;81.47;99270.88;2508778;28;20320;-79
2024/02/25 04:43:03;;;;;;;4.45;3.38;;;;;;;-1.20;81.52;99280.25;2504116;28;20039;-81
2024/02/25 04:44:18;;;;;;;5.22;3.55;;;;;;;-1.19;81.61;99274.31;2506545;28;20310;-79
2024/02/25 04:45:33;;;;;;;4.50;3.67;;;;;;;-1.18;82.14;99270.06;2510914;28;20047;-82
2024/02/25 04:46:47;;;;;;;5.40;3.63;;;;;;;-1.19;81.56;99282.00;2510275;28;20683;-81
2024/02/25 04:48:01;;;;;;;4.28;3.67;;;;;;;-1.17;81.99;99290.56;2507261;28;20785;-81
2024/02/25 04:49:16;;;;;;;4.95;3.50;;;;;;;-1.17;82.06;99288.00;2513300;28;20368;-81
2024/02/25 04:50:31;;;;;;;7.68;3.83;;;;;;;-1.14;82.18;99288.03;2501196;28;20089;-80
2024/02/25 04:51:46;;;;;;;4.38;3.60;;;;;;;-1.12;82.16;99291.50;2499716;28;20699;-81
2024/02/25 04:52:59;;;;;;;4.68;3.97;;;;;;;-1.07;82.00;99294.13;2497172;28;20310;-81
2024/02/25 04:54:15;;;;;;;4.28;3.67;;;;;;;-1.04;82.34;99298.44;2511695;28;20305;-81
2024/02/25 04:55:29;;;;;;;5.10;4.60;;;;;;;-1.03;82.32;99292.47;2500730;28;20043;-81
2024/02/25 04:56:43;;;;;;;5.93;4.82;;;;;;;-1.00;82.07;99295.97;2500040;28;20779;-81
2024/02/25 04:57:57;;;;;;;6.03;4.65;;;;;;;-0.99;82.53;99304.50;2497809;28;20053;-81
2024/02/25 04:59:11;;;;;;;9.70;6.07;;;;;;;-0.97;82.02;99295.16;2502509;28;20290;-81
2024/02/25 05:00:25;;;;;;;11.27;8.90;;;;;;;-0.95;82.26;99303.72;2494729;28;21389;-80
2024/02/25 05:01:45;;;;;;;11.32;6.47;;;;;;;-0.92;82.23;99299.50;2499723;28;20316;-80
2024/02/25 05:02:58;;;;;;;8.35;7.10;;;;;;;-0.89;82.22;99303.81;2496781;28;20134;-81
2024/02/25 05:04:13;;;;;;;5.22;4.72;;;;;;;-0.85;82.53;99305.59;2494985;28;20306;-80
2024/02/25 05:05:26;;;;;;;5.50;4.65;;;;;;;-0.80;82.74;99308.19;2502046;28;20058;-82
2024/02/25 05:06:40;;;;;;;5.32;4.47;;;;;;;-0.76;82.30;99307.41;2499033;28;20310;-80
2024/02/25 05:07:54;;;;;;;5.65;4.03;;;;;;;-0.73;82.80;99310.03;2498176;28;20520;-80
2024/02/25 05:09:08;;;;;;;5.80;4.55;;;;;;;-0.69;82.75;99315.22;2502575;28;20305;-81
2024/02/25 05:10:22;;;;;;;7.72;4.28;;;;;;;-0.64;82.96;99317.00;2504354;28;20046;-82
2024/02/25 05:11:36;;;;;;;5.07;4.57;;;;;;;-0.57;82.67;99311.97;2503955;28;20803;-80
2024/02/25 05:12:50;;;;;;;5.50;4.47;;;;;;;-0.48;82.94;99314.66;2504705;28;20055;-80
2024/02/25 05:14:04;;;;;;;6.57;5.90;;;;;;;-0.33;83.11;99315.75;2496303;28;20310;-81
2024/02/25 05:15:18;;;;;;;6.82;5.40;;;;;;;-0.19;83.18;99310.78;2502258;28;20059;-81
2024/02/25 05:16:32;;;;;;;6.53;5.75;;;;;;;-0.06;83.21;99321.22;2501359;28;20309;-82
2024/02/25 05:17:47;;;;;;;5.57;4.97;;;;;;;0.06;83.16;99317.94;2508873;28;20124;-83
2024/02/25 05:19:03;;;;;;;7.13;5.80;;;;;;;0.14;82.72;99318.03;2503494;28;20285;-82
2024/02/25 05:20:16;;;;;;;6.57;5.97;;;;;;;0.21;82.74;99320.69;2496361;28;20867;-82
2024/02/25 05:21:31;;;;;;;7.35;5.95;;;;;;;0.28;82.72;99320.75;2500838;28;20306;-83
2024/02/25 05:22:44;;;;;;;5.53;4.18;;;;;;;0.31;82.96;99320.78;2498988;28;20051;-82
2024/02/25 05:23:59;;;;;;;6.00;4.70;;;;;;;0.35;83.00;99312.28;2504029;28;20093;-82
2024/02/25 05:25:14;;;;;;;11.18;5.35;;;;;;;0.39;83.02;99308.94;2505191;28;20055;-83
2024/02/25 05:26:28;;;;;;;5.28;4.43;;;;;;;0.43;83.00;99313.22;2510964;28;20054;-83
2024/02/25 05:27:42;;;;;;;6.03;4.97;;;;;;;0.46;83.06;99317.53;2499253;28;20083;-82
2024/02/25 05:28:56;;;;;;;5.22;4.03;;;;;;;0.47;83.03;99312.44;2501151;28;20046;-82
2024/02/25 05:30:11;;;;;;;7.10;3.47;;;;;;;0.50;83.04;99312.47;2496195;28;20043;-83
2024/02/25 05:31:26;;;;;;;6.45;4.40;;;;;;;0.52;82.85;99309.91;2502072;28;20103;-82
2024/02/25 05:32:40;;;;;;;5.13;3.70;;;;;;;0.53;82.74;99312.47;2499038;28;20047;-82
2024/02/25 05:33:56;;;;;;;6.00;3.42;;;;;;;0.55;82.80;99304.81;2498226;28;20497;-82
2024/02/25 05:35:10;;;;;;;3.55;2.80;;;;;;;0.56;82.72;99307.38;2501829;28;20053;-82
2024/02/25 05:36:24;;;;;;;3.08;2.72;;;;;;;0.56;82.48;99311.66;2497006;28;20461;-83
2024/02/25 05:37:37;;;;;;;5.35;3.15;;;;;;;0.54;82.71;99316.78;2500348;28;20071;-82
2024/02/25 05:38:52;;;;;;;4.53;3.05;;;;;;;0.54;82.30;99321.94;2496293;28;20063;-82
2024/02/25 05:40:07;;;;;;;5.43;2.75;;;;;;;0.53;82.25;99319.31;2495972;28;20055;-82
2024/02/25 05:41:21;;;;;;;4.50;2.65;;;;;;;0.51;82.12;99323.56;2508210;28;20499;-82
2024/02/25 05:42:35;;;;;;;5.00;2.72;;;;;;;0.49;82.14;99326.16;2507850;28;20505;-83
2024/02/25 05:43:50;;;;;;;5.13;4.35;;;;;;;0.47;82.05;99321.84;2501597;28;20134;-83
2024/02/25 05:45:04;;;;;;;5.68;3.90;;;;;;;0.46;82.30;99323.53;2505991;28;20495;-83
2024/02/25 05:46:18;;;;;;;5.35;2.80;;;;;;;0.47;81.98;99320.13;2497575;28;20069;-82
2024/02/25 05:47:32;;;;;;;3.55;2.72;;;;;;;0.47;82.25;99319.28;2505373;28;20446;-81
2024/02/25 05:48:47;;;;;;;3.53;3.05;;;;;;;0.49;82.10;99335.53;2500918;28;20059;-81
2024/02/25 05:50:02;;;;;;;3.97;3.50;;;;;;;0.51;81.99;99327.00;2502537;28;20059;-81